Time;durP1;ratioP1;P1;durP2;ratioP2;P2;SDS_P1;SDS_P2;PMS_P1;PMS_P2;Temp;Humidity;BMP_temperature;BMP_pressure;BME280_temperature;BME280_humidity;BME280_pressure;Samples;Min_cycle;Max_cycle;Signal;HPM_P1;HPM_P2
2023/11/04 00:00:13;;;;;;;1.90;1.00;;;;;;;;;;5055404;28;20055;-87
2023/11/04 00:02:38;;;;;;;1.52;0.82;;;;;;;;;;5072227;28;20599;-86
2023/11/04 00:05:07;;;;;;;1.85;0.90;;;;;;;;;;5054272;28;20063;-87
2023/11/04 00:07:32;;;;;;;1.58;0.77;;;;;;;;;;5053846;28;20024;-87
2023/11/04 00:09:57;;;;;;;6.13;0.87;;;;;;;;;;5059624;28;20383;-87
2023/11/04 00:12:22;;;;;;;1.53;1.00;;;;;;;;;;5053955;28;20772;-87
2023/11/04 00:14:48;;;;;;;2.92;1.10;;;;;;;;;;5054282;28;20265;-87
2023/11/04 00:17:13;;;;;;;3.33;1.33;;;;;;;;;;5072337;28;20108;-87
2023/11/04 00:19:38;;;;;;;5.85;1.25;;;;;;;;;;5057227;28;20020;-87
2023/11/04 00:22:03;;;;;;;3.25;1.20;;;;;;;;;;5071885;28;20099;-87
2023/11/04 00:24:29;;;;;;;2.22;0.88;;;;;;;;;;5052984;28;20510;-87
2023/11/04 00:26:54;;;;;;;1.40;0.95;;;;;;;;;;5072687;28;20028;-87
2023/11/04 00:29:19;;;;;;;3.42;1.10;;;;;;;;;;5072694;28;20024;-87
2023/11/04 00:31:44;;;;;;;1.77;0.90;;;;;;;;;;5076419;28;20033;-87
2023/11/04 00:34:10;;;;;;;1.80;0.90;;;;;;;;;;5058607;28;20024;-87
2023/11/04 00:36:35;;;;;;;2.63;1.03;;;;;;;;;;5075561;28;20035;-87
2023/11/04 00:39:01;;;;;;;7.20;1.10;;;;;;;;;;5061248;28;20330;-87
2023/11/04 00:41:26;;;;;;;2.47;0.82;;;;;;;;;;5058197;28;20024;-87
2023/11/04 00:43:51;;;;;;;2.07;1.13;;;;;;;;;;5076650;28;20099;-87
2023/11/04 00:46:17;;;;;;;1.77;1.30;;;;;;;;;;5058294;28;20284;-87
2023/11/04 00:48:42;;;;;;;6.10;1.27;;;;;;;;;;5057934;28;20443;-87
2023/11/04 00:51:08;;;;;;;3.17;1.20;;;;;;;;;;5075791;28;20016;-87
2023/11/04 00:53:34;;;;;;;2.55;1.20;;;;;;;;;;5075415;28;20123;-87
2023/11/04 00:55:59;;;;;;;3.88;1.00;;;;;;;;;;5057340;28;20695;-86
2023/11/04 00:58:24;;;;;;;3.55;1.13;;;;;;;;;;5057541;28;20020;-87
2023/11/04 01:00:50;;;;;;;1.30;0.90;;;;;;;;;;5058269;28;20047;-87
2023/11/04 01:03:15;;;;;;;2.78;1.20;;;;;;;;;;5058446;28;20360;-87
2023/11/04 01:05:40;;;;;;;3.05;1.00;;;;;;;;;;5057015;28;20103;-86
2023/11/04 01:08:06;;;;;;;3.63;1.25;;;;;;;;;;5056520;28;20399;-87
2023/11/04 01:10:31;;;;;;;5.28;1.25;;;;;;;;;;5059014;28;20024;-87
2023/11/04 01:12:56;;;;;;;5.60;1.07;;;;;;;;;;5057199;28;20031;-87
2023/11/04 01:15:21;;;;;;;3.87;1.30;;;;;;;;;;5056739;28;20032;-87
2023/11/04 01:17:46;;;;;;;2.97;1.10;;;;;;;;;;5076097;28;20348;-86
2023/11/04 01:20:12;;;;;;;2.63;1.30;;;;;;;;;;5058063;28;20023;-85
2023/11/04 01:22:37;;;;;;;2.10;1.30;;;;;;;;;;5058094;28;20261;-85
2023/11/04 01:25:02;;;;;;;2.00;1.02;;;;;;;;;;5056425;28;20508;-85
2023/11/04 01:27:28;;;;;;;1.73;1.00;;;;;;;;;;5074905;28;20099;-85
2023/11/04 01:29:53;;;;;;;4.00;1.27;;;;;;;;;;5056833;28;20032;-86
2023/11/04 01:32:18;;;;;;;1.47;1.07;;;;;;;;;;5058407;28;20017;-86
2023/11/04 01:34:44;;;;;;;2.45;1.20;;;;;;;;;;5041014;28;20769;-86
2023/11/04 01:37:09;;;;;;;1.60;1.13;;;;;;;;;;5058281;28;20028;-85
2023/11/04 01:39:35;;;;;;;2.17;1.20;;;;;;;;;;5075834;28;20047;-86
2023/11/04 01:42:04;;;;;;;1.60;1.00;;;;;;;;;;5075409;28;20016;-86
2023/11/04 01:44:29;;;;;;;9.77;1.58;;;;;;;;;;5074736;28;20050;-86
2023/11/04 01:46:55;;;;;;;8.07;1.10;;;;;;;;;;5075501;28;20093;-85
2023/11/04 01:49:20;;;;;;;2.40;1.30;;;;;;;;;;5057484;28;20103;-86
2023/11/04 01:51:45;;;;;;;1.77;1.13;;;;;;;;;;5075233;28;20024;-85
2023/11/04 01:54:11;;;;;;;2.53;1.10;;;;;;;;;;5057758;28;20031;-86
2023/11/04 01:56:39;;;;;;;4.17;1.57;;;;;;;;;;5057453;28;20384;-86
2023/11/04 01:59:06;;;;;;;3.28;1.20;;;;;;;;;;5057899;28;20322;-86
2023/11/04 02:01:32;;;;;;;2.72;1.20;;;;;;;;;;5056802;28;20020;-86
2023/11/04 02:03:57;;;;;;;2.00;1.10;;;;;;;;;;5057979;28;20020;-85
2023/11/04 02:06:23;;;;;;;2.65;1.20;;;;;;;;;;5074668;28;20107;-86
2023/11/04 02:08:48;;;;;;;2.33;1.13;;;;;;;;;;5056295;28;20116;-86
2023/11/04 02:11:13;;;;;;;2.13;1.05;;;;;;;;;;5074594;28;20021;-86
2023/11/04 02:13:38;;;;;;;1.77;1.17;;;;;;;;;;5056865;28;20020;-86
2023/11/04 02:16:04;;;;;;;2.53;1.00;;;;;;;;;;5074527;28;20017;-86
2023/11/04 02:18:30;;;;;;;2.08;1.30;;;;;;;;;;5071434;28;20276;-86
2023/11/04 02:20:58;;;;;;;7.72;1.13;;;;;;;;;;5074634;28;20084;-86
2023/11/04 02:23:24;;;;;;;2.35;1.10;;;;;;;;;;5074940;28;20037;-85
2023/11/04 02:25:49;;;;;;;3.17;1.30;;;;;;;;;;5056170;28;20680;-85
2023/11/04 02:28:14;;;;;;;2.97;1.30;;;;;;;;;;5073714;28;20024;-85
2023/11/04 02:30:39;;;;;;;1.80;1.40;;;;;;;;;;5056212;28;20262;-86
2023/11/04 02:33:05;;;;;;;4.63;1.30;;;;;;;;;;5055971;28;20258;-86
2023/11/04 02:35:30;;;;;;;1.40;1.00;;;;;;;;;;5055510;28;20273;-86
2023/11/04 02:37:55;;;;;;;3.58;1.50;;;;;;;;;;5056053;28;20238;-86
2023/11/04 02:40:21;;;;;;;2.33;1.30;;;;;;;;;;5074431;28;20024;-86
2023/11/04 02:42:47;;;;;;;2.05;1.13;;;;;;;;;;5056196;28;20029;-85
2023/11/04 02:45:12;;;;;;;3.63;1.23;;;;;;;;;;5073767;28;20025;-85
2023/11/04 02:47:37;;;;;;;3.72;1.13;;;;;;;;;;5056381;28;20031;-86
2023/11/04 02:50:02;;;;;;;2.03;1.23;;;;;;;;;;5074108;28;20052;-86
2023/11/04 02:52:28;;;;;;;1.88;1.33;;;;;;;;;;5071428;28;20355;-85
2023/11/04 02:54:54;;;;;;;3.00;1.10;;;;;;;;;;5055669;28;20024;-86
2023/11/04 02:57:19;;;;;;;2.28;1.20;;;;;;;;;;5073797;28;20100;-85
2023/11/04 02:59:44;;;;;;;3.65;1.20;;;;;;;;;;5073419;28;20473;-85
2023/11/04 03:02:10;;;;;;;1.50;1.30;;;;;;;;;;5055853;28;20066;-85
2023/11/04 03:04:38;;;;;;;2.67;1.37;;;;;;;;;;5073777;28;20028;-86
2023/11/04 03:07:03;;;;;;;2.72;1.27;;;;;;;;;;5055331;28;20269;-86
2023/11/04 03:09:29;;;;;;;2.65;1.40;;;;;;;;;;5074570;28;20499;-86
2023/11/04 03:11:56;;;;;;;3.20;1.48;;;;;;;;;;5056267;28;20107;-85
2023/11/04 03:14:21;;;;;;;2.95;1.55;;;;;;;;;;5073986;28;20024;-85
2023/11/04 03:16:46;;;;;;;2.58;1.63;;;;;;;;;;5055913;28;20445;-86
2023/11/04 03:19:12;;;;;;;2.53;1.50;;;;;;;;;;5055965;28;20028;-85
2023/11/04 03:21:37;;;;;;;1.67;1.27;;;;;;;;;;5072777;28;20052;-85
2023/11/04 03:24:02;;;;;;;4.53;1.43;;;;;;;;;;5055952;28;20036;-86
2023/11/04 03:26:28;;;;;;;1.15;1.02;;;;;;;;;;5056414;28;20280;-86
2023/11/04 03:28:53;;;;;;;2.13;1.27;;;;;;;;;;5055576;28;20124;-85
2023/11/04 03:31:18;;;;;;;4.13;1.52;;;;;;;;;;5055917;28;20261;-86
2023/11/04 03:33:43;;;;;;;1.07;1.00;;;;;;;;;;5055787;28;20501;-85
2023/11/04 03:36:09;;;;;;;2.07;1.37;;;;;;;;;;5073505;28;20858;-85
2023/11/04 03:38:35;;;;;;;2.03;1.15;;;;;;;;;;5054301;28;20361;-85
2023/11/04 03:41:00;;;;;;;3.17;1.27;;;;;;;;;;5055598;28;20024;-86
2023/11/04 03:43:25;;;;;;;3.00;1.20;;;;;;;;;;5055763;28;20070;-86
2023/11/04 03:45:51;;;;;;;3.55;1.75;;;;;;;;;;5055524;28;20029;-86
2023/11/04 03:48:17;;;;;;;1.75;1.00;;;;;;;;;;5055695;28;20048;-85
2023/11/04 03:50:42;;;;;;;1.42;1.10;;;;;;;;;;5055811;28;20540;-85
2023/11/04 03:53:07;;;;;;;2.80;1.13;;;;;;;;;;5055929;28;20366;-86
2023/11/04 03:55:32;;;;;;;1.45;1.00;;;;;;;;;;5054544;28;20017;-86
2023/11/04 03:57:58;;;;;;;1.73;1.10;;;;;;;;;;5073992;28;20017;-86
2023/11/04 04:00:23;;;;;;;2.63;1.00;;;;;;;;;;5073588;28;20161;-85
2023/11/04 04:02:49;;;;;;;2.10;1.07;;;;;;;;;;5055450;28;20345;-85
2023/11/04 04:05:14;;;;;;;2.95;1.42;;;;;;;;;;5054838;28;20256;-86
2023/11/04 04:07:39;;;;;;;3.70;1.38;;;;;;;;;;5055530;28;20029;-85
2023/11/04 04:10:05;;;;;;;2.30;0.90;;;;;;;;;;5055376;28;20029;-85
2023/11/04 04:12:30;;;;;;;3.22;1.17;;;;;;;;;;5053022;28;20269;-86
2023/11/04 04:14:55;;;;;;;8.25;1.48;;;;;;;;;;5055547;28;20020;-85
2023/11/04 04:17:21;;;;;;;2.87;1.10;;;;;;;;;;5073289;28;20099;-85
2023/11/04 04:19:47;;;;;;;2.13;1.17;;;;;;;;;;5073389;28;20264;-86
2023/11/04 04:22:12;;;;;;;3.50;1.00;;;;;;;;;;5054737;28;20023;-85
2023/11/04 04:24:40;;;;;;;2.13;1.00;;;;;;;;;;5055073;28;20040;-85
2023/11/04 04:27:06;;;;;;;2.88;0.90;;;;;;;;;;5054306;28;20020;-86
2023/11/04 04:29:31;;;;;;;2.37;1.10;;;;;;;;;;5055037;28;20047;-86
2023/11/04 04:31:57;;;;;;;1.52;0.90;;;;;;;;;;5055007;28;20020;-86
2023/11/04 04:34:22;;;;;;;2.13;1.10;;;;;;;;;;5055205;28;20032;-86
2023/11/04 04:36:47;;;;;;;3.47;1.00;;;;;;;;;;5073116;28;20495;-85
2023/11/04 04:39:12;;;;;;;4.43;1.27;;;;;;;;;;5054822;28;20013;-85
2023/11/04 04:41:38;;;;;;;1.37;0.90;;;;;;;;;;5052794;28;20138;-86
2023/11/04 04:44:03;;;;;;;2.65;0.82;;;;;;;;;;5058693;28;20609;-86
2023/11/04 04:46:34;;;;;;;1.90;1.05;;;;;;;;;;5071512;28;20028;-85
2023/11/04 04:48:59;;;;;;;4.97;1.15;;;;;;;;;;5067946;28;20156;-86
2023/11/04 04:51:24;;;;;;;2.87;1.30;;;;;;;;;;5054610;28;20482;-85
2023/11/04 04:53:50;;;;;;;1.20;0.80;;;;;;;;;;5072871;28;20668;-86
2023/11/04 04:56:15;;;;;;;6.20;1.00;;;;;;;;;;5054930;28;20073;-85
2023/11/04 04:58:41;;;;;;;2.80;1.00;;;;;;;;;;5055094;28;20303;-86
2023/11/04 05:01:07;;;;;;;3.90;1.05;;;;;;;;;;5053218;28;20051;-86
2023/11/04 05:03:32;;;;;;;1.13;0.70;;;;;;;;;;5063537;28;20016;-85
2023/11/04 05:05:58;;;;;;;2.30;0.93;;;;;;;;;;5072841;28;20040;-86
2023/11/04 05:08:23;;;;;;;2.88;1.00;;;;;;;;;;5054901;28;20020;-87
2023/11/04 05:10:49;;;;;;;5.10;1.47;;;;;;;;;;5055019;28;20427;-86
2023/11/04 05:13:14;;;;;;;1.10;0.83;;;;;;;;;;5054680;28;20253;-87
2023/11/04 05:15:39;;;;;;;1.00;0.90;;;;;;;;;;5055408;28;20261;-86
2023/11/04 05:18:04;;;;;;;1.65;0.90;;;;;;;;;;5057537;28;20262;-86
2023/11/04 05:20:30;;;;;;;2.30;1.23;;;;;;;;;;5056043;28;20013;-86
2023/11/04 05:22:56;;;;;;;1.38;1.00;;;;;;;;;;5056249;28;20261;-86
2023/11/04 05:25:22;;;;;;;3.03;1.20;;;;;;;;;;5064415;28;20024;-85
2023/11/04 05:27:47;;;;;;;3.58;1.40;;;;;;;;;;5056758;28;20028;-85
2023/11/04 05:30:12;;;;;;;1.53;0.90;;;;;;;;;;5057131;28;20042;-86
2023/11/04 05:32:38;;;;;;;2.13;1.23;;;;;;;;;;5074431;28;20344;-86
2023/11/04 05:35:03;;;;;;;4.18;0.95;;;;;;;;;;5055341;28;20035;-85
2023/11/04 05:37:28;;;;;;;4.03;0.85;;;;;;;;;;5057162;28;20017;-86
2023/11/04 05:39:53;;;;;;;2.40;1.15;;;;;;;;;;5074827;28;20050;-86
2023/11/04 05:42:20;;;;;;;3.55;1.10;;;;;;;;;;5056847;28;20111;-86
2023/11/04 05:44:45;;;;;;;4.88;1.00;;;;;;;;;;5056192;28;20035;-86
2023/11/04 05:47:11;;;;;;;4.03;0.90;;;;;;;;;;5073934;28;20012;-86
2023/11/04 05:49:36;;;;;;;3.72;1.15;;;;;;;;;;5074794;28;20032;-86
2023/11/04 05:52:02;;;;;;;1.00;0.70;;;;;;;;;;5055397;28;20024;-86
2023/11/04 05:54:27;;;;;;;3.58;0.82;;;;;;;;;;5057590;28;20016;-87
2023/11/04 05:56:52;;;;;;;1.97;0.80;;;;;;;;;;5075112;28;20077;-85
2023/11/04 05:59:18;;;;;;;1.57;0.53;;;;;;;;;;5074587;28;20253;-83
2023/11/04 06:01:43;;;;;;;1.73;0.85;;;;;;;;;;5074727;28;20028;-83
2023/11/04 06:04:09;;;;;;;0.93;0.70;;;;;;;;;;5057033;28;20017;-84
2023/11/04 06:06:35;;;;;;;6.57;1.33;;;;;;;;;;5056394;28;20272;-86
2023/11/04 06:09:00;;;;;;;2.00;0.85;;;;;;;;;;5055228;28;20467;-85
2023/11/04 06:11:25;;;;;;;2.43;0.67;;;;;;;;;;5056885;28;20021;-85
2023/11/04 06:13:53;;;;;;;2.23;0.70;;;;;;;;;;5056669;28;20249;-85
2023/11/04 06:16:18;;;;;;;4.10;1.42;;;;;;;;;;5054828;28;20541;-85
2023/11/04 06:18:43;;;;;;;2.30;0.90;;;;;;;;;;5056554;28;20127;-85
2023/11/04 06:21:13;;;;;;;1.63;0.80;;;;;;;;;;5056511;28;20022;-85
2023/11/04 06:23:38;;;;;;;3.20;0.93;;;;;;;;;;5052610;28;20282;-86
2023/11/04 06:26:04;;;;;;;3.70;0.83;;;;;;;;;;5050343;28;20392;-85
2023/11/04 06:28:29;;;;;;;3.88;1.00;;;;;;;;;;5050933;28;20742;-85
2023/11/04 06:30:54;;;;;;;4.60;0.90;;;;;;;;;;5052445;28;20099;-85
2023/11/04 06:33:19;;;;;;;2.83;1.33;;;;;;;;;;5052462;28;20282;-84
2023/11/04 06:35:45;;;;;;;4.47;1.17;;;;;;;;;;5052234;28;20388;-84
2023/11/04 06:38:10;;;;;;;1.47;1.07;;;;;;;;;;5052576;28;20066;-83
2023/11/04 06:40:38;;;;;;;2.57;0.73;;;;;;;;;;5052503;28;20292;-85
2023/11/04 06:43:03;;;;;;;3.47;0.77;;;;;;;;;;5052513;28;20769;-84
2023/11/04 06:45:28;;;;;;;1.40;1.00;;;;;;;;;;5052776;28;20025;-85
2023/11/04 06:47:53;;;;;;;5.63;0.80;;;;;;;;;;5052590;28;20025;-84
2023/11/04 06:50:18;;;;;;;8.40;1.40;;;;;;;;;;5052714;28;20021;-84
2023/11/04 06:52:44;;;;;;;2.57;1.10;;;;;;;;;;5052727;28;20250;-84
2023/11/04 06:55:09;;;;;;;1.50;0.90;;;;;;;;;;5051823;28;20757;-85
2023/11/04 06:57:34;;;;;;;2.23;0.87;;;;;;;;;;5052655;28;20021;-84
2023/11/04 06:59:59;;;;;;;1.35;1.00;;;;;;;;;;5052270;28;20319;-85
2023/11/04 07:02:25;;;;;;;1.45;0.95;;;;;;;;;;5051979;28;20099;-85
2023/11/04 07:04:50;;;;;;;3.30;0.90;;;;;;;;;;5051839;28;20021;-86
2023/11/04 07:07:15;;;;;;;3.60;0.80;;;;;;;;;;5053128;28;20261;-87
2023/11/04 07:09:40;;;;;;;1.70;1.20;;;;;;;;;;5053487;28;20013;-85
2023/11/04 07:12:06;;;;;;;1.60;1.03;;;;;;;;;;5051980;28;20063;-85
2023/11/04 07:14:31;;;;;;;2.70;0.93;;;;;;;;;;5051668;28;20337;-85
2023/11/04 07:16:57;;;;;;;2.60;1.13;;;;;;;;;;5051540;28;20025;-86
2023/11/04 07:19:22;;;;;;;3.10;1.30;;;;;;;;;;5051411;28;20009;-85
2023/11/04 07:21:47;;;;;;;2.05;0.95;;;;;;;;;;5050107;28;20021;-85
2023/11/04 07:24:13;;;;;;;2.07;1.10;;;;;;;;;;5058823;28;20049;-85
2023/11/04 07:26:38;;;;;;;9.38;0.93;;;;;;;;;;5052324;28;20345;-83
2023/11/04 07:29:03;;;;;;;5.22;1.13;;;;;;;;;;5055234;28;20066;-84
2023/11/04 07:31:31;;;;;;;3.83;1.02;;;;;;;;;;5054773;28;20024;-83
2023/11/04 07:33:57;;;;;;;1.33;0.70;;;;;;;;;;5072611;28;20017;-83
2023/11/04 07:36:25;;;;;;;6.13;0.90;;;;;;;;;;5068361;28;20431;-83
2023/11/04 07:38:52;;;;;;;1.38;0.90;;;;;;;;;;5071484;28;20025;-83
2023/11/04 07:41:17;;;;;;;4.30;1.17;;;;;;;;;;5054710;28;20394;-83
2023/11/04 07:43:43;;;;;;;10.45;1.25;;;;;;;;;;5072801;28;20012;-84
2023/11/04 07:46:08;;;;;;;3.13;0.98;;;;;;;;;;5054564;28;20020;-83
2023/11/04 07:48:33;;;;;;;1.70;0.80;;;;;;;;;;5072963;28;20081;-83
2023/11/04 07:50:59;;;;;;;2.67;0.83;;;;;;;;;;5072915;28;20325;-84
2023/11/04 07:53:24;;;;;;;4.50;1.00;;;;;;;;;;5053375;28;20028;-84
2023/11/04 07:55:49;;;;;;;1.57;0.90;;;;;;;;;;5072195;28;20273;-84
2023/11/04 07:58:14;;;;;;;1.03;0.60;;;;;;;;;;5054462;28;20354;-84
2023/11/04 08:00:39;;;;;;;7.50;1.10;;;;;;;;;;5054281;28;20732;-84
2023/11/04 08:03:05;;;;;;;2.47;0.83;;;;;;;;;;5071223;28;20633;-83
2023/11/04 08:05:30;;;;;;;4.07;1.20;;;;;;;;;;5065876;28;20281;-84
2023/11/04 08:07:55;;;;;;;2.97;0.70;;;;;;;;;;5054162;28;20112;-83
2023/11/04 08:10:20;;;;;;;1.70;0.80;;;;;;;;;;5054197;28;20496;-83
2023/11/04 08:12:46;;;;;;;3.35;0.95;;;;;;;;;;5072419;28;20605;-83
2023/11/04 08:15:12;;;;;;;2.17;0.77;;;;;;;;;;5054059;28;20464;-84
2023/11/04 08:17:37;;;;;;;6.93;1.40;;;;;;;;;;5054375;28;20149;-83
2023/11/04 08:20:08;;;;;;;2.78;0.95;;;;;;;;;;5054543;28;20544;-83
2023/11/04 08:22:34;;;;;;;4.53;1.15;;;;;;;;;;5043512;28;20056;-84
2023/11/04 08:24:59;;;;;;;6.40;1.65;;;;;;;;;;5052946;28;20080;-84
2023/11/04 08:27:24;;;;;;;2.03;0.80;;;;;;;;;;5072268;28;20514;-83
2023/11/04 08:29:49;;;;;;;2.17;0.80;;;;;;;;;;5052358;28;20029;-84
2023/11/04 08:32:15;;;;;;;3.63;0.80;;;;;;;;;;5054855;28;20450;-84
2023/11/04 08:34:41;;;;;;;5.93;1.03;;;;;;;;;;5071505;28;20016;-83
2023/11/04 08:37:07;;;;;;;3.08;0.80;;;;;;;;;;5049175;28;20269;-84
2023/11/04 08:39:33;;;;;;;1.75;0.80;;;;;;;;;;5054125;28;20021;-84
2023/11/04 08:41:58;;;;;;;1.52;0.82;;;;;;;;;;5071887;28;20012;-83
2023/11/04 08:44:24;;;;;;;0.63;0.57;;;;;;;;;;5054082;28;20040;-85
2023/11/04 08:46:49;;;;;;;1.60;0.80;;;;;;;;;;5054119;28;20036;-85
2023/11/04 08:49:14;;;;;;;1.52;0.70;;;;;;;;;;5053876;28;20266;-85
2023/11/04 08:51:39;;;;;;;1.27;0.80;;;;;;;;;;5054812;28;20422;-85
2023/11/04 08:54:09;;;;;;;3.13;0.80;;;;;;;;;;5069113;28;20739;-85
2023/11/04 08:56:34;;;;;;;2.60;0.75;;;;;;;;;;5057466;28;20024;-85
2023/11/04 08:58:59;;;;;;;8.60;1.00;;;;;;;;;;5075572;28;20031;-85
2023/11/04 09:01:25;;;;;;;2.35;0.75;;;;;;;;;;5057192;28;20098;-85
2023/11/04 09:03:51;;;;;;;1.65;0.82;;;;;;;;;;5075579;28;20017;-85
2023/11/04 09:06:16;;;;;;;5.05;1.40;;;;;;;;;;5056365;28;20028;-85
2023/11/04 09:08:42;;;;;;;7.20;1.52;;;;;;;;;;5057197;28;20473;-85
2023/11/04 09:11:07;;;;;;;1.95;0.82;;;;;;;;;;5074587;28;20021;-85
2023/11/04 09:13:33;;;;;;;1.50;0.90;;;;;;;;;;5075562;28;20442;-85
2023/11/04 09:15:58;;;;;;;2.45;1.05;;;;;;;;;;5074491;28;20055;-85
2023/11/04 09:18:23;;;;;;;1.63;0.70;;;;;;;;;;5074410;28;20050;-85
2023/11/04 09:20:49;;;;;;;2.13;0.87;;;;;;;;;;5052998;28;20308;-85
2023/11/04 09:23:14;;;;;;;2.13;1.10;;;;;;;;;;5074186;28;20326;-85
2023/11/04 09:25:40;;;;;;;2.97;1.08;;;;;;;;;;5056217;28;20082;-85
2023/11/04 09:28:05;;;;;;;2.70;0.87;;;;;;;;;;5056931;28;20035;-85
2023/11/04 09:30:30;;;;;;;1.47;0.77;;;;;;;;;;5075071;28;20332;-85
2023/11/04 09:32:55;;;;;;;4.50;0.90;;;;;;;;;;5057134;28;20304;-85
2023/11/04 09:35:21;;;;;;;2.67;0.43;;;;;;;;;;5056546;28;20112;-85
2023/11/04 09:37:46;;;;;;;2.28;0.80;;;;;;;;;;5073509;28;20304;-85
2023/11/04 09:40:14;;;;;;;1.73;0.63;;;;;;;;;;5073673;28;20073;-85
2023/11/04 09:42:40;;;;;;;4.80;0.98;;;;;;;;;;5055712;28;20025;-85
2023/11/04 09:45:06;;;;;;;2.50;0.60;;;;;;;;;;5055838;28;20020;-85
2023/11/04 09:47:31;;;;;;;1.73;0.80;;;;;;;;;;5056868;28;20017;-85
2023/11/04 09:49:56;;;;;;;6.95;0.77;;;;;;;;;;5075018;28;20029;-85
2023/11/04 09:52:22;;;;;;;1.17;0.45;;;;;;;;;;5055326;28;20016;-85
2023/11/04 09:54:48;;;;;;;3.28;0.52;;;;;;;;;;5055905;28;20013;-85
2023/11/04 09:57:13;;;;;;;2.70;0.60;;;;;;;;;;5072454;28;20020;-86
2023/11/04 09:59:39;;;;;;;1.52;0.65;;;;;;;;;;5054153;28;20032;-85
2023/11/04 10:02:05;;;;;;;3.67;0.70;;;;;;;;;;5054492;28;20108;-85
2023/11/04 10:04:31;;;;;;;5.53;3.22;;;;;;;;;;5073616;28;20411;-85
2023/11/04 10:06:56;;;;;;;27.58;14.30;;;;;;;;;;5055022;28;20077;-86
2023/11/04 10:09:23;;;;;;;38.07;20.70;;;;;;;;;;5074960;28;20475;-86
2023/11/04 10:11:48;;;;;;;10.50;6.68;;;;;;;;;;5055684;28;20093;-85
2023/11/04 10:14:13;;;;;;;8.57;5.17;;;;;;;;;;5073474;28;20024;-85
2023/11/04 10:16:38;;;;;;;10.30;5.40;;;;;;;;;;5055935;28;20360;-85
2023/11/04 10:19:03;;;;;;;28.50;10.87;;;;;;;;;;5073997;28;20344;-85
2023/11/04 10:21:29;;;;;;;25.33;16.07;;;;;;;;;;5055971;28;20285;-86
2023/11/04 10:23:54;;;;;;;23.10;16.50;;;;;;;;;;5054300;28;20285;-86
2023/11/04 10:26:22;;;;;;;9.38;5.75;;;;;;;;;;5055884;28;20253;-86
2023/11/04 10:28:48;;;;;;;5.38;3.47;;;;;;;;;;5073505;28;20025;-86
2023/11/04 10:31:14;;;;;;;28.25;18.73;;;;;;;;;;5055861;28;20104;-86
2023/11/04 10:33:41;;;;;;;15.02;2.53;;;;;;;;;;5055402;28;20031;-86
2023/11/04 10:36:08;;;;;;;7.25;4.38;;;;;;;;;;5073271;28;20158;-85
2023/11/04 10:38:35;;;;;;;5.88;3.13;;;;;;;;;;5072869;28;20052;-86
2023/11/04 10:41:02;;;;;;;9.98;4.93;;;;;;;;;;5055800;28;20020;-86
2023/11/04 10:43:31;;;;;;;5.10;2.15;;;;;;;;;;5073375;28;20020;-86
2023/11/04 10:46:09;;;;;;;3.92;1.60;;;;;;;;;;5054004;28;20023;-86
2023/11/04 10:48:51;;;;;;;13.75;2.83;;;;;;;;;;5069939;28;20149;-86
2023/11/04 10:51:17;;;;;;;;;;;;;;;;;;5073756;28;20074;-86
2023/11/04 10:53:45;;;;;;;5.80;1.42;;;;;;;;;;5072201;28;19938;-86
2023/11/04 10:56:27;;;;;;;3.75;1.45;;;;;;;;;;5053710;28;20052;-85
2023/11/04 10:58:52;;;;;;;11.68;1.88;;;;;;;;;;5049620;28;20021;-86
2023/11/04 11:01:18;;;;;;;6.77;3.17;;;;;;;;;;5071972;28;20024;-86
2023/11/04 11:03:44;;;;;;;6.75;3.05;;;;;;;;;;5054865;28;20249;-86
2023/11/04 11:06:11;;;;;;;3.92;1.30;;;;;;;;;;5071698;28;20028;-86
2023/11/04 11:08:38;;;;;;;4.25;1.48;;;;;;;;;;5073173;28;20043;-87
2023/11/04 11:11:08;;;;;;;9.52;1.60;;;;;;;;;;5055133;28;20030;-86
2023/11/04 11:13:34;;;;;;;10.85;1.90;;;;;;;;;;5072462;28;20024;-87
2023/11/04 11:16:00;;;;;;;6.72;3.45;;;;;;;;;;5053793;28;20024;-85
2023/11/04 11:18:26;;;;;;;7.78;4.00;;;;;;;;;;5072358;28;20028;-86
2023/11/04 11:20:51;;;;;;;4.40;1.83;;;;;;;;;;5054495;28;20492;-86
2023/11/04 11:23:24;;;;;;;3.40;1.73;;;;;;;;;;5053365;28;20016;-86
2023/11/04 11:25:51;;;;;;;8.30;3.45;;;;;;;;;;5051423;28;20111;-86
2023/11/04 11:28:17;;;;;;;0.93;0.93;;;;;;;;;;5072633;28;20473;-86
2023/11/04 11:30:42;;;;;;;2.72;1.15;;;;;;;;;;5072990;28;20016;-85
2023/11/04 11:33:08;;;;;;;9.80;2.40;;;;;;;;;;5054637;28;20181;-86
2023/11/04 11:35:51;;;;;;;2.45;1.58;;;;;;;;;;5072365;28;20236;-86
2023/11/04 11:38:16;;;;;;;;;;;;;;;;;;5071846;28;20400;-86
2023/11/04 11:40:41;;;;;;;15.33;6.60;;;;;;;;;;5072945;28;19908;-86
2023/11/04 11:43:06;;;;;;;12.20;5.40;;;;;;;;;;5054496;28;20058;-86
2023/11/04 11:45:31;;;;;;;13.03;4.27;;;;;;;;;;5071528;28;20265;-85
2023/11/04 11:47:57;;;;;;;21.07;6.90;;;;;;;;;;5070465;28;20013;-86
2023/11/04 11:50:24;;;;;;;13.43;4.85;;;;;;;;;;5054410;28;20314;-86
2023/11/04 11:52:50;;;;;;;5.95;1.42;;;;;;;;;;5054605;28;20062;-86
2023/11/04 11:55:15;;;;;;;5.20;1.87;;;;;;;;;;5052339;28;20499;-86
2023/11/04 11:57:40;;;;;;;5.20;2.13;;;;;;;;;;5072473;28;20752;-86
2023/11/04 12:00:06;;;;;;;3.13;1.20;;;;;;;;;;5054308;28;20052;-87
2023/11/04 12:02:31;;;;;;;2.53;1.30;;;;;;;;;;5072489;28;20257;-87
2023/11/04 12:04:56;;;;;;;4.88;1.67;;;;;;;;;;5072414;28;20083;-86
2023/11/04 12:07:21;;;;;;;9.40;2.73;;;;;;;;;;5052906;28;20649;-86
2023/11/04 12:09:47;;;;;;;11.43;2.93;;;;;;;;;;5069617;28;20257;-86
2023/11/04 12:12:15;;;;;;;7.27;3.00;;;;;;;;;;5053843;28;20026;-87
2023/11/04 12:14:41;;;;;;;3.45;1.05;;;;;;;;;;5054179;28;20272;-86
2023/11/04 12:17:08;;;;;;;1.85;1.02;;;;;;;;;;5071676;28;20013;-85
2023/11/04 12:19:34;;;;;;;8.18;2.10;;;;;;;;;;5071705;28;20025;-86
2023/11/04 12:21:59;;;;;;;1.52;1.02;;;;;;;;;;5071590;28;20023;-87
2023/11/04 12:24:24;;;;;;;4.45;1.10;;;;;;;;;;5052430;28;20037;-86
2023/11/04 12:26:51;;;;;;;4.43;1.60;;;;;;;;;;5057962;28;20365;-86
2023/11/04 12:29:18;;;;;;;9.93;1.80;;;;;;;;;;5076205;28;20748;-86
2023/11/04 12:31:43;;;;;;;2.15;0.90;;;;;;;;;;5056599;28;20477;-86
2023/11/04 12:34:09;;;;;;;6.27;1.17;;;;;;;;;;5055959;28;20027;-86
2023/11/04 12:36:35;;;;;;;6.10;1.52;;;;;;;;;;5056550;28;20273;-86
2023/11/04 12:39:00;;;;;;;3.28;0.95;;;;;;;;;;5075850;28;20512;-85
2023/11/04 12:41:26;;;;;;;1.67;1.00;;;;;;;;;;5072848;28;20375;-86
2023/11/04 12:43:52;;;;;;;5.32;1.40;;;;;;;;;;5075051;28;20074;-86
2023/11/04 12:46:19;;;;;;;5.20;1.52;;;;;;;;;;5075036;28;20028;-86
2023/11/04 12:48:45;;;;;;;7.93;1.42;;;;;;;;;;5056637;28;20158;-86
2023/11/04 12:51:10;;;;;;;4.43;1.23;;;;;;;;;;5074565;28;20524;-86
2023/11/04 12:53:35;;;;;;;2.70;1.27;;;;;;;;;;5056556;28;20078;-86
2023/11/04 12:56:01;;;;;;;1.47;1.00;;;;;;;;;;5073286;28;20055;-86
2023/11/04 12:58:26;;;;;;;1.60;0.80;;;;;;;;;;5074336;28;20629;-85
2023/11/04 13:00:51;;;;;;;2.50;0.80;;;;;;;;;;5057020;28;20012;-84
2023/11/04 13:03:17;;;;;;;1.53;0.67;;;;;;;;;;5056468;28;20250;-84
2023/11/04 13:05:42;;;;;;;15.80;1.52;;;;;;;;;;5074986;28;20264;-85
2023/11/04 13:08:07;;;;;;;1.65;0.93;;;;;;;;;;5074689;28;20017;-84
2023/11/04 13:10:33;;;;;;;2.97;0.75;;;;;;;;;;5057712;28;20021;-85
2023/11/04 13:13:00;;;;;;;1.25;1.05;;;;;;;;;;5073221;28;20024;-85
2023/11/04 13:15:25;;;;;;;1.40;0.68;;;;;;;;;;5066473;28;20031;-85
2023/11/04 13:17:50;;;;;;;1.10;0.67;;;;;;;;;;5075158;28;20017;-85
2023/11/04 13:20:17;;;;;;;1.10;0.65;;;;;;;;;;5051884;28;20258;-86
2023/11/04 13:22:42;;;;;;;2.55;1.00;;;;;;;;;;5056877;28;20465;-85
2023/11/04 13:25:07;;;;;;;2.53;0.82;;;;;;;;;;5044936;28;20032;-86
2023/11/04 13:27:33;;;;;;;28.17;11.95;;;;;;;;;;5057024;28;20385;-86
2023/11/04 13:29:58;;;;;;;8.25;2.72;;;;;;;;;;5075123;28;20020;-86
2023/11/04 13:32:24;;;;;;;9.25;2.60;;;;;;;;;;5074692;28;20020;-87
2023/11/04 13:34:49;;;;;;;6.00;3.10;;;;;;;;;;5057479;28;20031;-87
2023/11/04 13:37:17;;;;;;;3.07;1.50;;;;;;;;;;5057009;28;20020;-86
2023/11/04 13:39:43;;;;;;;5.72;3.30;;;;;;;;;;5073790;28;20269;-85
2023/11/04 13:42:08;;;;;;;2.42;1.65;;;;;;;;;;5055750;28;20099;-85
2023/11/04 13:44:33;;;;;;;2.28;1.48;;;;;;;;;;5048341;28;20380;-85
2023/11/04 13:46:59;;;;;;;4.00;2.17;;;;;;;;;;5056603;28;20032;-86
2023/11/04 13:49:24;;;;;;;1.75;0.85;;;;;;;;;;5073787;28;20271;-85
2023/11/04 13:51:49;;;;;;;2.33;1.13;;;;;;;;;;5056037;28;20047;-85
2023/11/04 13:54:15;;;;;;;6.20;2.13;;;;;;;;;;5056265;28;20071;-84
2023/11/04 13:56:40;;;;;;;1.63;1.10;;;;;;;;;;5073781;28;20021;-84
2023/11/04 13:59:06;;;;;;;7.37;3.00;;;;;;;;;;5056620;28;20016;-83
2023/11/04 14:01:32;;;;;;;1.77;0.93;;;;;;;;;;5076676;28;20741;-83
2023/11/04 14:03:57;;;;;;;4.00;0.90;;;;;;;;;;5056885;28;20013;-86
2023/11/04 14:06:23;;;;;;;2.15;0.90;;;;;;;;;;5056519;28;20268;-85
2023/11/04 14:08:48;;;;;;;0.40;0.38;;;;;;;;;;5073659;28;20023;-85
2023/11/04 14:11:13;;;;;;;0.97;0.70;;;;;;;;;;5072647;28;20052;-85
2023/11/04 14:13:38;;;;;;;3.00;1.20;;;;;;;;;;5073827;28;20672;-86
2023/11/04 14:16:04;;;;;;;0.60;0.50;;;;;;;;;;5055506;28;20603;-85
2023/11/04 14:18:29;;;;;;;5.07;1.40;;;;;;;;;;5054586;28;20687;-85
2023/11/04 14:20:54;;;;;;;1.73;0.93;;;;;;;;;;5072679;28;20465;-85
2023/11/04 14:23:20;;;;;;;1.35;0.90;;;;;;;;;;5072000;28;20012;-86
2023/11/04 14:25:45;;;;;;;4.25;1.02;;;;;;;;;;5054896;28;20031;-86
2023/11/04 14:28:10;;;;;;;1.70;0.90;;;;;;;;;;5055965;28;20336;-86
2023/11/04 14:30:35;;;;;;;0.65;0.65;;;;;;;;;;5055750;28;20100;-86
2023/11/04 14:33:02;;;;;;;1.30;1.07;;;;;;;;;;5056444;28;20024;-86